Time;durP1;ratioP1;P1;durP2;ratioP2;P2;SDS_P1;SDS_P2;PMS_P1;PMS_P2;Temp;Humidity;BMP_temperature;BMP_pressure;BME280_temperature;BME280_humidity;BME280_pressure;Samples;Min_cycle;Max_cycle;Signal;HPM_P1;HPM_P2
2023/09/19 00:00:37;;;;;;;2.13;1.87;;;;;;;;;;4972319;28;20416;-64
2023/09/19 00:03:04;;;;;;;1.90;1.80;;;;;;;;;;4973578;28;20435;-63
2023/09/19 00:05:31;;;;;;;1.83;1.60;;;;;;;;;;4973398;28;20431;-64
2023/09/19 00:07:58;;;;;;;2.57;1.50;;;;;;;;;;4973452;28;20438;-64
2023/09/19 00:10:36;;;;;;;2.07;1.97;;;;;;;;;;4973328;28;20606;-64
2023/09/19 00:13:12;;;;;;;2.80;1.47;;;;;;;;;;4972374;28;20519;-64
2023/09/19 00:15:42;;;;;;;1.37;1.37;;;;;;;;;;4972283;28;20480;-64
2023/09/19 00:18:11;;;;;;;1.57;1.47;;;;;;;;;;4972989;28;20635;-64
2023/09/19 00:20:39;;;;;;;5.60;1.50;;;;;;;;;;4972782;28;20409;-64
2023/09/19 00:23:08;;;;;;;5.33;1.47;;;;;;;;;;4977066;28;20441;-64
2023/09/19 00:25:37;;;;;;;2.50;1.30;;;;;;;;;;4976904;28;20474;-64
2023/09/19 00:28:04;;;;;;;4.77;1.43;;;;;;;;;;4977023;28;20429;-64
2023/09/19 00:30:30;;;;;;;4.57;1.77;;;;;;;;;;4976953;28;20975;-64
2023/09/19 00:32:57;;;;;;;4.30;1.50;;;;;;;;;;4976495;28;20443;-64
2023/09/19 00:35:25;;;;;;;1.83;1.73;;;;;;;;;;4975617;28;20421;-64
2023/09/19 00:37:52;;;;;;;4.83;1.33;;;;;;;;;;4977063;28;20417;-64
2023/09/19 00:40:21;;;;;;;6.97;1.37;;;;;;;;;;4977034;28;20417;-64
2023/09/19 00:42:47;;;;;;;4.83;1.30;;;;;;;;;;4976947;28;20931;-64
2023/09/19 00:45:14;;;;;;;1.33;1.20;;;;;;;;;;4975529;28;20420;-64
2023/09/19 00:47:42;;;;;;;2.13;1.30;;;;;;;;;;4975655;28;20821;-64
2023/09/19 00:50:14;;;;;;;3.40;1.33;;;;;;;;;;4976974;28;20411;-64
2023/09/19 00:52:41;;;;;;;3.43;1.20;;;;;;;;;;4976711;28;20955;-64
2023/09/19 00:55:08;;;;;;;1.10;1.10;;;;;;;;;;4976745;28;20422;-64
2023/09/19 00:57:40;;;;;;;1.40;1.30;;;;;;;;;;4976793;28;20842;-64
2023/09/19 01:00:08;;;;;;;4.40;1.10;;;;;;;;;;4976404;28;20405;-64
2023/09/19 01:02:34;;;;;;;1.30;1.30;;;;;;;;;;4976553;28;20406;-64
2023/09/19 01:05:00;;;;;;;3.13;1.30;;;;;;;;;;4974898;28;20472;-64
2023/09/19 01:07:29;;;;;;;1.27;0.90;;;;;;;;;;4975270;28;20850;-64
2023/09/19 01:09:58;;;;;;;2.93;1.07;;;;;;;;;;4976309;28;20434;-64
2023/09/19 01:12:31;;;;;;;2.60;1.10;;;;;;;;;;4976357;28;20426;-64
2023/09/19 01:15:04;;;;;;;3.57;1.43;;;;;;;;;;4975202;28;20813;-64
2023/09/19 01:17:32;;;;;;;1.30;1.00;;;;;;;;;;4975736;28;20985;-64
2023/09/19 01:20:20;;;;;;;1.50;1.13;;;;;;;;;;4976064;28;20491;-64
2023/09/19 01:23:04;;;;;;;4.23;1.30;;;;;;;;;;4976051;28;20457;-64
2023/09/19 01:25:53;;;;;;;1.00;0.97;;;;;;;;;;4976098;28;20857;-64
2023/09/19 01:28:23;;;;;;;1.30;1.00;;;;;;;;;;4974300;28;20471;-64
2023/09/19 01:30:54;;;;;;;1.30;1.10;;;;;;;;;;4976470;28;20491;-64
2023/09/19 01:33:23;;;;;;;1.67;1.10;;;;;;;;;;4975239;28;20412;-64
2023/09/19 01:35:50;;;;;;;1.07;1.00;;;;;;;;;;4974653;28;20472;-64
2023/09/19 01:38:16;;;;;;;2.00;1.10;;;;;;;;;;4975649;28;20921;-64
2023/09/19 01:40:43;;;;;;;4.50;1.40;;;;;;;;;;4976018;28;20472;-64
2023/09/19 01:43:13;;;;;;;1.30;1.13;;;;;;;;;;4975828;28;20527;-64
2023/09/19 01:45:54;;;;;;;1.37;1.10;;;;;;;;;;4975707;28;20429;-64
2023/09/19 01:48:31;;;;;;;2.10;1.37;;;;;;;;;;4975903;28;20770;-64
2023/09/19 01:51:01;;;;;;;2.90;1.03;;;;;;;;;;4975814;28;20416;-64
2023/09/19 01:53:30;;;;;;;2.00;1.00;;;;;;;;;;4975538;28;20447;-64
2023/09/19 01:55:56;;;;;;;1.47;0.87;;;;;;;;;;4975602;28;20549;-64
2023/09/19 01:58:28;;;;;;;1.07;1.07;;;;;;;;;;4975424;28;20403;-64
2023/09/19 02:00:55;;;;;;;3.63;1.10;;;;;;;;;;4975451;28;20425;-64
2023/09/19 02:03:22;;;;;;;7.60;1.00;;;;;;;;;;4975542;28;20404;-64
2023/09/19 02:05:53;;;;;;;2.77;0.80;;;;;;;;;;4975365;28;20417;-64
2023/09/19 02:08:19;;;;;;;2.00;0.70;;;;;;;;;;4975041;28;20412;-64
2023/09/19 02:10:48;;;;;;;1.53;1.13;;;;;;;;;;4975333;28;20499;-64
2023/09/19 02:13:17;;;;;;;1.03;0.80;;;;;;;;;;4975382;28;20411;-64
2023/09/19 02:15:49;;;;;;;3.73;1.07;;;;;;;;;;4975544;28;20954;-64
2023/09/19 02:18:15;;;;;;;1.70;1.30;;;;;;;;;;4975398;28;20428;-64
2023/09/19 02:20:41;;;;;;;1.20;1.10;;;;;;;;;;4974600;28;20963;-64
2023/09/19 02:23:08;;;;;;;1.30;0.80;;;;;;;;;;4974958;28;20410;-64
2023/09/19 02:25:37;;;;;;;3.23;1.00;;;;;;;;;;4974360;28;20410;-64
2023/09/19 02:28:05;;;;;;;1.87;1.10;;;;;;;;;;4974561;28;20957;-64
2023/09/19 02:30:31;;;;;;;3.03;1.13;;;;;;;;;;4975209;28;20457;-64
2023/09/19 02:32:57;;;;;;;1.73;0.93;;;;;;;;;;4974664;28;20447;-64
2023/09/19 02:35:25;;;;;;;1.00;1.00;;;;;;;;;;4974952;28;20428;-64
2023/09/19 02:37:54;;;;;;;1.33;1.17;;;;;;;;;;4974654;28;20420;-64
2023/09/19 02:40:21;;;;;;;0.90;0.90;;;;;;;;;;4974775;28;20421;-64
2023/09/19 02:42:53;;;;;;;1.30;1.20;;;;;;;;;;4974685;28;20424;-64
2023/09/19 02:45:20;;;;;;;0.83;0.83;;;;;;;;;;4973598;28;20426;-64
2023/09/19 02:47:49;;;;;;;2.63;1.47;;;;;;;;;;4974658;28;20496;-64
2023/09/19 02:50:18;;;;;;;0.90;0.90;;;;;;;;;;4974619;28;20499;-64
2023/09/19 02:52:51;;;;;;;0.90;0.90;;;;;;;;;;4974499;28;20456;-64
2023/09/19 02:55:21;;;;;;;0.90;0.90;;;;;;;;;;4974858;28;20858;-64
2023/09/19 02:57:51;;;;;;;0.80;0.80;;;;;;;;;;4974389;28;20421;-64
2023/09/19 03:00:21;;;;;;;0.97;0.97;;;;;;;;;;4974539;28;20871;-64
2023/09/19 03:02:51;;;;;;;2.77;0.93;;;;;;;;;;4974268;28;20803;-64
2023/09/19 03:05:20;;;;;;;1.20;0.83;;;;;;;;;;4974510;28;20880;-64
2023/09/19 03:07:50;;;;;;;3.43;1.40;;;;;;;;;;4974499;28;20492;-64
2023/09/19 03:10:16;;;;;;;1.00;0.90;;;;;;;;;;4974451;28;20436;-64
2023/09/19 03:12:45;;;;;;;2.00;1.00;;;;;;;;;;4973983;28;20812;-64
2023/09/19 03:15:11;;;;;;;1.00;1.00;;;;;;;;;;4974768;28;20535;-64
2023/09/19 03:17:37;;;;;;;1.03;1.03;;;;;;;;;;4973815;28;20483;-64
2023/09/19 03:20:08;;;;;;;1.77;1.10;;;;;;;;;;4974051;28;20446;-64
2023/09/19 03:22:37;;;;;;;6.43;1.30;;;;;;;;;;4974119;28;20441;-64
2023/09/19 03:25:07;;;;;;;0.90;0.90;;;;;;;;;;4972618;28;20905;-64
2023/09/19 03:27:33;;;;;;;1.37;1.00;;;;;;;;;;4972762;28;20941;-64
2023/09/19 03:29:59;;;;;;;1.03;1.00;;;;;;;;;;4974174;28;20464;-64
2023/09/19 03:32:25;;;;;;;2.87;1.00;;;;;;;;;;4973914;28;20452;-64
2023/09/19 03:34:51;;;;;;;3.13;1.00;;;;;;;;;;4973823;28;20784;-64
2023/09/19 03:37:18;;;;;;;1.57;1.30;;;;;;;;;;4973397;28;20951;-64
2023/09/19 03:39:44;;;;;;;3.57;1.10;;;;;;;;;;4973850;28;20486;-64
2023/09/19 03:42:10;;;;;;;1.07;0.97;;;;;;;;;;4973690;28;20428;-64
2023/09/19 03:44:36;;;;;;;1.23;1.10;;;;;;;;;;4973745;28;20471;-64
2023/09/19 03:47:04;;;;;;;1.63;1.10;;;;;;;;;;4973017;28;20424;-64
2023/09/19 03:49:31;;;;;;;1.30;1.03;;;;;;;;;;4973799;28;20547;-64
2023/09/19 03:51:57;;;;;;;2.93;1.20;;;;;;;;;;4973563;28;20503;-64
2023/09/19 03:54:23;;;;;;;1.53;1.23;;;;;;;;;;4973982;28;20401;-64
2023/09/19 03:56:50;;;;;;;1.17;1.13;;;;;;;;;;4971716;28;20479;-64
2023/09/19 03:59:16;;;;;;;1.60;0.97;;;;;;;;;;4973527;28;20427;-64
2023/09/19 04:01:42;;;;;;;3.90;1.10;;;;;;;;;;4973597;28;20443;-64
2023/09/19 04:04:12;;;;;;;1.57;0.97;;;;;;;;;;4973135;28;20729;-64
2023/09/19 04:06:38;;;;;;;2.03;1.07;;;;;;;;;;4973555;28;20906;-64
2023/09/19 04:09:06;;;;;;;1.57;1.10;;;;;;;;;;4973431;28;20889;-64
2023/09/19 04:11:33;;;;;;;3.03;1.10;;;;;;;;;;4973556;28;20420;-64
2023/09/19 04:13:59;;;;;;;1.90;1.27;;;;;;;;;;4973388;28;20497;-64
2023/09/19 04:16:25;;;;;;;2.20;2.00;;;;;;;;;;4973439;28;20951;-64
2023/09/19 04:18:53;;;;;;;2.97;1.23;;;;;;;;;;4973156;28;20922;-64
2023/09/19 04:21:19;;;;;;;2.60;1.03;;;;;;;;;;4972976;28;20889;-64
2023/09/19 04:23:47;;;;;;;1.50;1.40;;;;;;;;;;4972872;28;20499;-64
2023/09/19 04:26:16;;;;;;;11.20;9.40;;;;;;;;;;4973242;28;20433;-64
2023/09/19 04:28:43;;;;;;;1.20;1.10;;;;;;;;;;4972574;28;20896;-64
2023/09/19 04:31:11;;;;;;;1.70;1.10;;;;;;;;;;4972379;28;20424;-64
2023/09/19 04:33:37;;;;;;;1.30;1.30;;;;;;;;;;4973020;28;20442;-64
2023/09/19 04:36:05;;;;;;;1.67;1.40;;;;;;;;;;4972636;28;20478;-64
2023/09/19 04:38:31;;;;;;;1.40;1.30;;;;;;;;;;4972311;28;20448;-64
2023/09/19 04:41:00;;;;;;;2.23;1.03;;;;;;;;;;4972311;28;20445;-64
2023/09/19 04:43:26;;;;;;;6.03;1.30;;;;;;;;;;4972358;28;20420;-64
2023/09/19 04:45:55;;;;;;;3.50;1.33;;;;;;;;;;4972480;28;20499;-64
2023/09/19 04:48:23;;;;;;;3.53;1.60;;;;;;;;;;4973117;28;20488;-64
2023/09/19 04:50:50;;;;;;;1.60;1.50;;;;;;;;;;4972922;28;20517;-64
2023/09/19 04:53:17;;;;;;;1.43;1.33;;;;;;;;;;4972783;28;20817;-64
2023/09/19 04:55:46;;;;;;;1.80;1.70;;;;;;;;;;4972983;28;20843;-64
2023/09/19 04:58:12;;;;;;;1.40;1.27;;;;;;;;;;4972793;28;20790;-64
2023/09/19 05:00:38;;;;;;;1.77;1.30;;;;;;;;;;4972823;28;20436;-64
2023/09/19 05:03:04;;;;;;;1.73;1.27;;;;;;;;;;4972895;28;20960;-64
2023/09/19 05:05:30;;;;;;;3.60;1.20;;;;;;;;;;4972688;28;20415;-64
2023/09/19 05:07:56;;;;;;;1.93;1.50;;;;;;;;;;4973424;28;20425;-64
2023/09/19 05:10:22;;;;;;;4.20;1.33;;;;;;;;;;4976655;28;20428;-64
2023/09/19 05:12:51;;;;;;;1.20;1.10;;;;;;;;;;4976482;28;20417;-64
2023/09/19 05:15:17;;;;;;;1.93;1.20;;;;;;;;;;4976328;28;20416;-64
2023/09/19 05:17:51;;;;;;;2.13;1.23;;;;;;;;;;4976453;28;20459;-64
2023/09/19 05:20:24;;;;;;;2.27;1.27;;;;;;;;;;4976388;28;20434;-64
2023/09/19 05:22:50;;;;;;;2.70;1.10;;;;;;;;;;4976359;28;20435;-64
2023/09/19 05:25:20;;;;;;;1.33;1.10;;;;;;;;;;4976059;28;20429;-64
2023/09/19 05:27:46;;;;;;;1.17;1.17;;;;;;;;;;4975716;28;20535;-64
2023/09/19 05:30:14;;;;;;;2.77;1.03;;;;;;;;;;4976061;28;20426;-64
2023/09/19 05:32:43;;;;;;;1.20;1.20;;;;;;;;;;4976233;28;20472;-64
2023/09/19 05:35:09;;;;;;;1.23;1.20;;;;;;;;;;4976082;28;20892;-64
2023/09/19 05:37:36;;;;;;;4.93;1.43;;;;;;;;;;4975698;28;20574;-65
2023/09/19 05:40:06;;;;;;;6.70;1.13;;;;;;;;;;4976204;28;20409;-65
2023/09/19 05:42:32;;;;;;;4.03;1.50;;;;;;;;;;4976096;28;20423;-65
2023/09/19 05:45:01;;;;;;;4.10;1.00;;;;;;;;;;4976360;28;20884;-65
2023/09/19 05:47:27;;;;;;;6.33;1.47;;;;;;;;;;4975917;28;20822;-65
2023/09/19 05:49:54;;;;;;;4.03;1.53;;;;;;;;;;4975770;28;20953;-65
2023/09/19 05:52:21;;;;;;;3.80;1.53;;;;;;;;;;4975665;28;20491;-65
2023/09/19 05:54:50;;;;;;;1.70;1.70;;;;;;;;;;4975789;28;20409;-65
2023/09/19 05:57:18;;;;;;;1.60;1.47;;;;;;;;;;4975571;28;20469;-65
2023/09/19 05:59:44;;;;;;;3.50;1.63;;;;;;;;;;4975605;28;20432;-65
2023/09/19 06:02:12;;;;;;;1.73;1.63;;;;;;;;;;4975527;28;20940;-65
2023/09/19 06:04:40;;;;;;;1.13;1.13;;;;;;;;;;4975542;28;20430;-65
2023/09/19 06:07:09;;;;;;;4.13;1.60;;;;;;;;;;4975632;28;20437;-65
2023/09/19 06:09:35;;;;;;;1.70;1.60;;;;;;;;;;4975447;28;20446;-65
2023/09/19 06:12:03;;;;;;;4.40;3.40;;;;;;;;;;4975416;28;20779;-65
2023/09/19 06:14:29;;;;;;;1.83;1.73;;;;;;;;;;4975188;28;20464;-65
2023/09/19 06:16:55;;;;;;;3.33;1.20;;;;;;;;;;4975293;28;20462;-65
2023/09/19 06:19:22;;;;;;;3.73;1.73;;;;;;;;;;4975148;28;20418;-65
2023/09/19 06:21:48;;;;;;;1.80;1.43;;;;;;;;;;4973656;28;20553;-65
2023/09/19 06:24:14;;;;;;;1.60;1.50;;;;;;;;;;4975111;28;20429;-65
2023/09/19 06:26:44;;;;;;;5.00;2.70;;;;;;;;;;4975043;28;20496;-65
2023/09/19 06:29:10;;;;;;;2.83;2.30;;;;;;;;;;4975166;28;20432;-65
2023/09/19 06:31:36;;;;;;;4.87;1.93;;;;;;;;;;4975031;28;20449;-65
2023/09/19 06:34:03;;;;;;;2.80;1.93;;;;;;;;;;4975093;28;20441;-65
2023/09/19 06:36:29;;;;;;;5.10;1.70;;;;;;;;;;4974824;28;20848;-65
2023/09/19 06:38:55;;;;;;;2.40;1.83;;;;;;;;;;4974783;28;20417;-65
2023/09/19 06:41:24;;;;;;;5.30;1.80;;;;;;;;;;4974913;28;20893;-65
2023/09/19 06:43:53;;;;;;;2.20;1.43;;;;;;;;;;4974581;28;20940;-65
2023/09/19 06:46:19;;;;;;;3.87;1.10;;;;;;;;;;4974313;28;20935;-65
2023/09/19 06:48:47;;;;;;;2.70;1.37;;;;;;;;;;4974474;28;20446;-65
2023/09/19 06:51:15;;;;;;;2.10;1.40;;;;;;;;;;4975084;28;20506;-65
2023/09/19 06:53:41;;;;;;;3.87;1.40;;;;;;;;;;4974549;28;20444;-65
2023/09/19 06:56:07;;;;;;;1.30;1.20;;;;;;;;;;4973861;28;20490;-65
2023/09/19 06:58:36;;;;;;;1.60;1.50;;;;;;;;;;4973540;28;20417;-65
2023/09/19 07:01:03;;;;;;;1.53;1.40;;;;;;;;;;4974313;28;20388;-65
2023/09/19 07:03:29;;;;;;;3.03;1.30;;;;;;;;;;4974111;28;20852;-65
2023/09/19 07:05:55;;;;;;;7.63;1.33;;;;;;;;;;4974244;28;20469;-65
2023/09/19 07:08:24;;;;;;;3.47;1.77;;;;;;;;;;4974400;28;20422;-65
2023/09/19 07:10:52;;;;;;;4.13;1.10;;;;;;;;;;4974128;28;21021;-65
2023/09/19 07:13:18;;;;;;;1.50;1.40;;;;;;;;;;4974440;28;20426;-65
2023/09/19 07:15:49;;;;;;;2.40;1.30;;;;;;;;;;4974194;28;20470;-65
2023/09/19 07:18:18;;;;;;;6.60;1.67;;;;;;;;;;4974555;28;20417;-65
2023/09/19 07:20:51;;;;;;;1.93;1.33;;;;;;;;;;4974068;28;20422;-64
2023/09/19 07:23:22;;;;;;;3.27;1.60;;;;;;;;;;4974651;28;20422;-65
2023/09/19 07:25:48;;;;;;;3.67;1.20;;;;;;;;;;4973960;28;20490;-65
2023/09/19 07:28:14;;;;;;;2.60;1.20;;;;;;;;;;4973771;28;20987;-65
2023/09/19 07:30:43;;;;;;;2.50;1.17;;;;;;;;;;4973804;28;20941;-66
2023/09/19 07:33:12;;;;;;;1.43;1.33;;;;;;;;;;4975426;28;20428;-66
2023/09/19 07:35:42;;;;;;;2.20;1.27;;;;;;;;;;4975791;28;20415;-65
2023/09/19 07:38:11;;;;;;;1.80;1.63;;;;;;;;;;4974880;28;20516;-64
2023/09/19 07:40:41;;;;;;;1.40;1.40;;;;;;;;;;4973632;28;21015;-65
2023/09/19 07:43:08;;;;;;;1.60;1.53;;;;;;;;;;4973655;28;20416;-65
2023/09/19 07:45:36;;;;;;;1.80;1.70;;;;;;;;;;4973885;28;20475;-65
2023/09/19 07:48:14;;;;;;;2.57;1.53;;;;;;;;;;4971901;28;20445;-65
2023/09/19 07:50:47;;;;;;;1.30;1.30;;;;;;;;;;4973704;28;20876;-65
2023/09/19 07:53:17;;;;;;;1.20;1.10;;;;;;;;;;4973746;28;20548;-64
2023/09/19 07:55:47;;;;;;;2.67;1.40;;;;;;;;;;4973306;28;20918;-64
2023/09/19 07:58:15;;;;;;;3.70;1.23;;;;;;;;;;4973468;28;20580;-65
2023/09/19 08:00:41;;;;;;;1.87;1.40;;;;;;;;;;4973424;28;20459;-64
2023/09/19 08:03:08;;;;;;;1.30;1.30;;;;;;;;;;4973146;28;20421;-65
2023/09/19 08:05:36;;;;;;;1.57;1.47;;;;;;;;;;4972920;28;20472;-65
2023/09/19 08:08:02;;;;;;;1.20;1.20;;;;;;;;;;4971978;28;20413;-64
2023/09/19 08:10:35;;;;;;;2.10;1.30;;;;;;;;;;4973419;28;20467;-65
2023/09/19 08:13:02;;;;;;;1.17;1.17;;;;;;;;;;4973555;28;20858;-65
2023/09/19 08:15:28;;;;;;;1.50;1.40;;;;;;;;;;4973342;28;20468;-67
2023/09/19 08:17:54;;;;;;;1.47;1.47;;;;;;;;;;4973176;28;20470;-67
2023/09/19 08:20:20;;;;;;;2.93;1.30;;;;;;;;;;4973455;28;20414;-66
2023/09/19 08:22:52;;;;;;;7.57;1.70;;;;;;;;;;4973324;28;20435;-66
2023/09/19 08:25:18;;;;;;;7.83;1.97;;;;;;;;;;4973500;28;21011;-66
2023/09/19 08:27:50;;;;;;;4.00;1.30;;;;;;;;;;4973121;28;20510;-66
2023/09/19 08:30:18;;;;;;;1.23;1.13;;;;;;;;;;4973272;28;20428;-68
2023/09/19 08:32:44;;;;;;;1.70;1.60;;;;;;;;;;4973089;28;20451;-69
2023/09/19 08:35:11;;;;;;;2.03;1.43;;;;;;;;;;4972953;28;20998;-68
2023/09/19 08:37:37;;;;;;;9.93;1.67;;;;;;;;;;4973051;28;20502;-68
2023/09/19 08:40:03;;;;;;;2.33;1.77;;;;;;;;;;4972969;28;20494;-69
2023/09/19 08:42:29;;;;;;;1.97;1.47;;;;;;;;;;4973580;28;20418;-68
2023/09/19 08:44:56;;;;;;;5.50;4.00;;;;;;;;;;4976894;28;20498;-68
2023/09/19 08:47:36;;;;;;;1.40;1.30;;;;;;;;;;4976955;28;20803;-68
2023/09/19 08:50:13;;;;;;;4.00;2.20;;;;;;;;;;4976639;28;20471;-64
2023/09/19 08:52:43;;;;;;;4.30;1.50;;;;;;;;;;4976819;28;20437;-65
2023/09/19 08:55:20;;;;;;;3.73;1.63;;;;;;;;;;4976706;28;20501;-65
2023/09/19 08:57:48;;;;;;;2.10;1.90;;;;;;;;;;4977073;28;20462;-65
2023/09/19 09:00:18;;;;;;;1.40;1.40;;;;;;;;;;4976652;28;20413;-65
2023/09/19 09:02:45;;;;;;;1.50;1.50;;;;;;;;;;4976647;28;20443;-65
2023/09/19 09:05:10;;;;;;;1.20;1.20;;;;;;;;;;4976756;28;20834;-65
2023/09/19 09:07:38;;;;;;;2.03;1.33;;;;;;;;;;4975362;28;20924;-65
2023/09/19 09:10:04;;;;;;;2.27;1.60;;;;;;;;;;4976486;28;20446;-64
2023/09/19 09:12:31;;;;;;;1.83;1.70;;;;;;;;;;4976492;28;20442;-65
2023/09/19 09:14:57;;;;;;;1.60;1.50;;;;;;;;;;4976544;28;20428;-65
2023/09/19 09:17:26;;;;;;;4.70;1.40;;;;;;;;;;4976395;28;20507;-65
2023/09/19 09:19:58;;;;;;;1.63;1.63;;;;;;;;;;4976185;28;20432;-65
2023/09/19 09:22:24;;;;;;;3.67;1.70;;;;;;;;;;4976427;28;20480;-65
2023/09/19 09:25:06;;;;;;;1.50;1.40;;;;;;;;;;4974872;28;20548;-64
2023/09/19 09:27:34;;;;;;;2.30;1.30;;;;;;;;;;4976160;28;20439;-65
2023/09/19 09:30:00;;;;;;;2.00;1.40;;;;;;;;;;4976154;28;20512;-64
2023/09/19 09:32:33;;;;;;;1.10;0.97;;;;;;;;;;4976615;28;20417;-63
2023/09/19 09:34:59;;;;;;;1.20;1.20;;;;;;;;;;4976332;28;20532;-63
2023/09/19 09:37:30;;;;;;;1.37;1.27;;;;;;;;;;4976226;28;20477;-63
2023/09/19 09:40:19;;;;;;;4.17;1.10;;;;;;;;;;4976482;28;20465;-63
2023/09/19 09:42:52;;;;;;;1.50;1.23;;;;;;;;;;4976496;28;20803;-67
2023/09/19 09:45:36;;;;;;;2.70;1.30;;;;;;;;;;4976431;28;20811;-67
2023/09/19 09:48:03;;;;;;;1.47;1.37;;;;;;;;;;4976089;28;20808;-66
2023/09/19 09:53:07;;;;;;;3.43;1.33;;;;;;;;;;4976135;28;20421;-66
2023/09/19 09:55:51;;;;;;;1.50;1.40;;;;;;;;;;4975805;28;20426;-69
2023/09/19 09:58:24;;;;;;;1.87;1.10;;;;;;;;;;4975988;28;20411;-65
2023/09/19 10:00:57;;;;;;;2.50;1.50;;;;;;;;;;4975688;28;20465;-63
2023/09/19 10:03:34;;;;;;;2.07;1.10;;;;;;;;;;4975583;28;20458;-63
2023/09/19 10:06:08;;;;;;;2.70;1.60;;;;;;;;;;4976020;28;20391;-63
2023/09/19 10:08:36;;;;;;;1.70;1.30;;;;;;;;;;4975993;28;20402;-63
2023/09/19 10:11:15;;;;;;;2.30;1.40;;;;;;;;;;4975602;28;20407;-63
2023/09/19 10:13:42;;;;;;;1.33;1.23;;;;;;;;;;4975864;28;20425;-63
2023/09/19 10:16:10;;;;;;;2.47;1.70;;;;;;;;;;4975438;28;20525;-63
2023/09/19 10:18:38;;;;;;;2.20;1.20;;;;;;;;;;4975971;28;20421;-63
2023/09/19 10:21:07;;;;;;;1.50;1.40;;;;;;;;;;4975615;28;20795;-63
2023/09/19 10:23:37;;;;;;;6.10;1.10;;;;;;;;;;4975454;28;20416;-63
2023/09/19 10:26:05;;;;;;;2.00;1.20;;;;;;;;;;4975324;28;20518;-64
2023/09/19 10:28:32;;;;;;;1.43;1.30;;;;;;;;;;4975543;28;20914;-63
2023/09/19 10:31:00;;;;;;;0.93;0.90;;;;;;;;;;4975352;28;20761;-63
2023/09/19 10:33:26;;;;;;;3.90;1.30;;;;;;;;;;4975226;28;20438;-63
2023/09/19 10:35:59;;;;;;;1.73;1.60;;;;;;;;;;4973737;28;20464;-63
2023/09/19 10:38:26;;;;;;;5.03;1.33;;;;;;;;;;4975039;28;20427;-63
2023/09/19 10:40:59;;;;;;;1.57;1.57;;;;;;;;;;4975057;28;20894;-63
2023/09/19 10:43:32;;;;;;;2.00;1.07;;;;;;;;;;4975131;28;20466;-63
2023/09/19 10:46:03;;;;;;;1.83;1.50;;;;;;;;;;4973526;28;20420;-63
2023/09/19 10:48:31;;;;;;;2.40;1.10;;;;;;;;;;4974965;28;20655;-63
2023/09/19 10:51:09;;;;;;;1.43;1.33;;;;;;;;;;4975121;28;20474;-63
2023/09/19 10:53:55;;;;;;;1.70;1.60;;;;;;;;;;4975230;28;20497;-62
2023/09/19 10:56:36;;;;;;;1.40;1.30;;;;;;;;;;4975161;28;21019;-62
2023/09/19 10:59:07;;;;;;;1.60;1.50;;;;;;;;;;4974434;28;20419;-62
2023/09/19 11:01:53;;;;;;;4.57;1.83;;;;;;;;;;4974647;28;20415;-63
2023/09/19 11:04:29;;;;;;;2.10;1.30;;;;;;;;;;4974644;28;20416;-62
2023/09/19 11:07:08;;;;;;;5.60;1.40;;;;;;;;;;4974087;28;20429;-62
2023/09/19 11:09:45;;;;;;;1.43;1.43;;;;;;;;;;4974680;28;20430;-61
2023/09/19 11:12:11;;;;;;;2.27;1.10;;;;;;;;;;4974890;28;20505;-60
2023/09/19 11:14:41;;;;;;;1.90;0.90;;;;;;;;;;4975101;28;20459;-60
2023/09/19 11:17:10;;;;;;;2.70;1.33;;;;;;;;;;4974544;28;20470;-60
2023/09/19 11:19:56;;;;;;;1.13;1.00;;;;;;;;;;4974463;28;20472;-61
2023/09/19 11:22:22;;;;;;;1.13;1.13;;;;;;;;;;4955402;28;20407;-61
2023/09/19 11:24:51;;;;;;;1.33;0.83;;;;;;;;;;4953952;28;20437;-61
2023/09/19 11:27:18;;;;;;;1.47;1.07;;;;;;;;;;4955295;28;20437;-61
2023/09/19 11:29:44;;;;;;;1.33;1.20;;;;;;;;;;4954830;28;20416;-61
2023/09/19 11:32:11;;;;;;;1.43;1.33;;;;;;;;;;4953757;29;20437;-61
2023/09/19 11:34:37;;;;;;;2.80;1.27;;;;;;;;;;4954751;28;20490;-61
2023/09/19 11:37:04;;;;;;;1.60;1.00;;;;;;;;;;4954683;28;20472;-62
2023/09/19 11:39:33;;;;;;;4.20;1.10;;;;;;;;;;4954624;28;20507;-62
2023/09/19 11:42:00;;;;;;;2.10;1.93;;;;;;;;;;4954561;28;20419;-61
2023/09/19 11:44:26;;;;;;;20.33;13.97;;;;;;;;;;4954325;28;20426;-61
2023/09/19 11:46:52;;;;;;;2.77;2.57;;;;;;;;;;4953533;28;20424;-61
2023/09/19 11:49:23;;;;;;;5.90;4.30;;;;;;;;;;4954499;28;20507;-61
2023/09/19 11:51:54;;;;;;;1.00;1.00;;;;;;;;;;4953339;28;20435;-61
2023/09/19 11:54:28;;;;;;;7.27;3.80;;;;;;;;;;4953546;28;20869;-61
2023/09/19 11:56:57;;;;;;;2.57;1.30;;;;;;;;;;4954424;28;20490;-61
2023/09/19 11:59:33;;;;;;;1.20;1.20;;;;;;;;;;4954229;28;20429;-62
2023/09/19 12:02:02;;;;;;;0.93;0.93;;;;;;;;;;4954501;28;20454;-61
2023/09/19 12:04:38;;;;;;;0.90;0.90;;;;;;;;;;4954302;28;20446;-62
2023/09/19 12:07:11;;;;;;;2.00;1.10;;;;;;;;;;4954399;28;20427;-61
2023/09/19 12:09:43;;;;;;;1.30;1.20;;;;;;;;;;4953370;29;20426;-62
2023/09/19 12:12:12;;;;;;;1.60;1.50;;;;;;;;;;4954360;28;20906;-62
2023/09/19 12:14:43;;;;;;;1.40;1.40;;;;;;;;;;4954268;28;20433;-61
2023/09/19 12:17:13;;;;;;;1.00;1.00;;;;;;;;;;4953681;28;20481;-62
2023/09/19 12:19:38;;;;;;;1.67;1.03;;;;;;;;;;4954547;28;20415;-62
2023/09/19 12:22:05;;;;;;;1.00;1.00;;;;;;;;;;4954238;28;20414;-62
2023/09/19 12:24:36;;;;;;;1.10;1.10;;;;;;;;;;4952939;28;20812;-61
2023/09/19 12:27:07;;;;;;;1.50;1.40;;;;;;;;;;4954063;28;20896;-62
2023/09/19 12:29:42;;;;;;;1.77;1.50;;;;;;;;;;4954178;28;20415;-61
2023/09/19 12:32:08;;;;;;;1.83;1.17;;;;;;;;;;4954555;28;20418;-61
2023/09/19 12:34:42;;;;;;;1.47;1.40;;;;;;;;;;4954292;28;20445;-61
2023/09/19 12:37:12;;;;;;;1.60;1.50;;;;;;;;;;4954046;28;20471;-62
2023/09/19 12:39:44;;;;;;;1.30;1.30;;;;;;;;;;4953895;28;20455;-61
2023/09/19 12:42:13;;;;;;;2.10;1.00;;;;;;;;;;4952839;28;20457;-61
2023/09/19 12:44:42;;;;;;;1.47;1.37;;;;;;;;;;4954327;28;20415;-61
2023/09/19 12:47:10;;;;;;;1.30;1.30;;;;;;;;;;4953284;29;20470;-61
2023/09/19 12:49:36;;;;;;;1.40;1.40;;;;;;;;;;4954098;28;20427;-62
2023/09/19 12:52:02;;;;;;;1.10;1.10;;;;;;;;;;4954015;28;20509;-62
2023/09/19 12:54:41;;;;;;;1.50;1.50;;;;;;;;;;4953705;28;20481;-62
2023/09/19 12:57:07;;;;;;;1.33;1.20;;;;;;;;;;4953840;28;20897;-61
2023/09/19 12:59:34;;;;;;;4.00;1.43;;;;;;;;;;4954179;28;20963;-62
2023/09/19 13:02:07;;;;;;;1.73;1.63;;;;;;;;;;4953577;28;20505;-62
2023/09/19 13:04:34;;;;;;;2.60;2.00;;;;;;;;;;4954141;28;20518;-62
2023/09/19 13:07:05;;;;;;;3.17;2.47;;;;;;;;;;4953706;28;20429;-66
2023/09/19 13:09:38;;;;;;;1.33;1.30;;;;;;;;;;4952754;28;20880;-62
2023/09/19 13:12:08;;;;;;;1.80;1.77;;;;;;;;;;4953721;28;20430;-62
2023/09/19 13:14:40;;;;;;;2.10;2.00;;;;;;;;;;4953996;28;20469;-61
2023/09/19 13:17:16;;;;;;;1.80;1.70;;;;;;;;;;4953963;28;20484;-62
2023/09/19 13:19:45;;;;;;;1.50;1.40;;;;;;;;;;4953822;28;20901;-61
2023/09/19 13:22:31;;;;;;;3.90;1.67;;;;;;;;;;4953870;28;20807;-61
2023/09/19 13:24:58;;;;;;;1.53;1.43;;;;;;;;;;4953887;28;20933;-61
2023/09/19 13:27:24;;;;;;;1.43;1.43;;;;;;;;;;4955258;28;20944;-61
2023/09/19 13:29:53;;;;;;;1.80;1.70;;;;;;;;;;4956146;28;20426;-61
2023/09/19 13:32:19;;;;;;;1.50;1.50;;;;;;;;;;4957134;28;21091;-62
2023/09/19 13:34:45;;;;;;;1.13;1.13;;;;;;;;;;4957459;28;20476;-61
2023/09/19 13:37:12;;;;;;;1.80;1.70;;;;;;;;;;4957001;28;20851;-61
2023/09/19 13:39:42;;;;;;;1.40;1.40;;;;;;;;;;4957230;28;20464;-61
2023/09/19 13:42:11;;;;;;;1.60;1.60;;;;;;;;;;4956970;28;20445;-61
2023/09/19 13:44:41;;;;;;;1.70;1.70;;;;;;;;;;4956928;28;20944;-61
2023/09/19 13:47:10;;;;;;;1.87;1.87;;;;;;;;;;4956633;28;20967;-61
2023/09/19 13:49:39;;;;;;;1.60;1.50;;;;;;;;;;4956927;28;20872;-61
2023/09/19 13:52:07;;;;;;;1.47;1.47;;;;;;;;;;4957040;28;20425;-61
2023/09/19 13:54:34;;;;;;;1.30;1.30;;;;;;;;;;4956751;28;20433;-61
2023/09/19 13:57:02;;;;;;;1.43;1.33;;;;;;;;;;4956704;28;20479;-62
2023/09/19 13:59:30;;;;;;;1.50;1.50;;;;;;;;;;4956910;28;20401;-61
2023/09/19 14:01:57;;;;;;;8.70;7.63;;;;;;;;;;4956539;28;20511;-61
2023/09/19 14:04:23;;;;;;;1.30;1.30;;;;;;;;;;4956282;28;20411;-61
2023/09/19 14:06:49;;;;;;;1.30;1.30;;;;;;;;;;4956762;28;20443;-61
2023/09/19 14:09:19;;;;;;;1.90;1.80;;;;;;;;;;4956687;28;20460;-62
2023/09/19 14:11:47;;;;;;;1.70;1.70;;;;;;;;;;4956521;28;20911;-61
2023/09/19 14:14:13;;;;;;;1.80;1.70;;;;;;;;;;4956562;28;20429;-62
2023/09/19 14:16:41;;;;;;;1.63;1.63;;;;;;;;;;4956627;28;20549;-61
2023/09/19 14:19:08;;;;;;;1.30;1.30;;;;;;;;;;4956761;28;20866;-61
2023/09/19 14:21:36;;;;;;;5.80;5.33;;;;;;;;;;4956255;28;20415;-61
2023/09/19 14:24:01;;;;;;;1.27;1.13;;;;;;;;;;4956567;28;20503;-61
2023/09/19 14:26:27;;;;;;;1.70;1.60;;;;;;;;;;4956023;28;20983;-61
2023/09/19 14:28:53;;;;;;;1.60;1.50;;;;;;;;;;4956483;28;20441;-61
2023/09/19 14:31:19;;;;;;;1.67;1.57;;;;;;;;;;4955991;28;20509;-61
2023/09/19 14:33:45;;;;;;;1.20;1.20;;;;;;;;;;4956281;28;20423;-61
2023/09/19 14:36:13;;;;;;;1.37;1.37;;;;;;;;;;4956239;28;20473;-61
2023/09/19 14:38:39;;;;;;;1.97;1.70;;;;;;;;;;4956070;28;20414;-63
2023/09/19 14:41:07;;;;;;;1.43;1.43;;;;;;;;;;4955695;28;20490;-61
2023/09/19 14:43:33;;;;;;;1.50;1.50;;;;;;;;;;4956050;28;20482;-61
2023/09/19 14:46:12;;;;;;;2.10;1.40;;;;;;;;;;4955992;28;20421;-61
2023/09/19 14:48:38;;;;;;;1.43;1.43;;;;;;;;;;4954455;28;20439;-61
2023/09/19 14:51:04;;;;;;;1.20;1.20;;;;;;;;;;4955722;28;21116;-61
2023/09/19 14:53:33;;;;;;;1.30;1.30;;;;;;;;;;4955965;28;20429;-61
2023/09/19 14:56:07;;;;;;;1.13;1.13;;;;;;;;;;4955756;28;20936;-61